sensor_id;sensor_type;location;lat;lon;timestamp;P1;durP1;ratioP1;P2;durP2;ratioP2
76290;SDS011;65100;46.884;17.410;2023-02-28T00:00:16;20.73;;;10.00;;
76290;SDS011;65100;46.884;17.410;2023-02-28T00:05:28;20.88;;;9.82;;
76290;SDS011;65100;46.884;17.410;2023-02-28T00:08:14;23.60;;;10.63;;
76290;SDS011;65100;46.884;17.410;2023-02-28T00:10:40;23.03;;;10.30;;
76290;SDS011;65100;46.884;17.410;2023-02-28T00:13:06;21.53;;;10.33;;
76290;SDS011;65100;46.884;17.410;2023-02-28T00:15:59;22.90;;;11.25;;
76290;SDS011;65100;46.884;17.410;2023-02-28T00:18:29;22.65;;;10.32;;
76290;SDS011;65100;46.884;17.410;2023-02-28T00:20:54;23.57;;;10.13;;
76290;SDS011;65100;46.884;17.410;2023-02-28T00:23:20;23.30;;;10.90;;
76290;SDS011;65100;46.884;17.410;2023-02-28T00:25:45;24.00;;;10.27;;
76290;SDS011;65100;46.884;17.410;2023-02-28T00:28:11;23.40;;;10.43;;
76290;SDS011;65100;46.884;17.410;2023-02-28T00:30:36;22.77;;;9.53;;
76290;SDS011;65100;46.884;17.410;2023-02-28T00:33:02;21.53;;;9.93;;
76290;SDS011;65100;46.884;17.410;2023-02-28T00:35:27;21.30;;;9.73;;
76290;SDS011;65100;46.884;17.410;2023-02-28T00:37:53;23.90;;;11.33;;
76290;SDS011;65100;46.884;17.410;2023-02-28T00:40:18;27.03;;;11.07;;
76290;SDS011;65100;46.884;17.410;2023-02-28T00:42:44;24.60;;;10.48;;
76290;SDS011;65100;46.884;17.410;2023-02-28T00:45:09;25.20;;;11.77;;
76290;SDS011;65100;46.884;17.410;2023-02-28T00:47:35;24.13;;;10.73;;
76290;SDS011;65100;46.884;17.410;2023-02-28T00:50:00;24.48;;;11.63;;
76290;SDS011;65100;46.884;17.410;2023-02-28T00:52:26;24.13;;;11.10;;
76290;SDS011;65100;46.884;17.410;2023-02-28T00:54:51;27.48;;;12.50;;
76290;SDS011;65100;46.884;17.410;2023-02-28T00:57:17;27.20;;;11.73;;
76290;SDS011;65100;46.884;17.410;2023-02-28T00:59:42;27.23;;;12.73;;
76290;SDS011;65100;46.884;17.410;2023-02-28T01:02:08;22.27;;;10.07;;
76290;SDS011;65100;46.884;17.410;2023-02-28T01:04:33;24.30;;;9.82;;
76290;SDS011;65100;46.884;17.410;2023-02-28T01:06:59;24.87;;;9.17;;
76290;SDS011;65100;46.884;17.410;2023-02-28T01:09:24;25.88;;;11.45;;
76290;SDS011;65100;46.884;17.410;2023-02-28T01:11:50;21.70;;;9.77;;
76290;SDS011;65100;46.884;17.410;2023-02-28T01:14:16;23.07;;;10.10;;
76290;SDS011;65100;46.884;17.410;2023-02-28T01:16:42;21.85;;;8.27;;
76290;SDS011;65100;46.884;17.410;2023-02-28T01:19:08;21.83;;;9.18;;
76290;SDS011;65100;46.884;17.410;2023-02-28T01:21:33;21.73;;;8.40;;
76290;SDS011;65100;46.884;17.410;2023-02-28T01:24:00;21.92;;;9.73;;
76290;SDS011;65100;46.884;17.410;2023-02-28T01:26:25;21.27;;;9.43;;
76290;SDS011;65100;46.884;17.410;2023-02-28T01:28:51;22.00;;;9.57;;
76290;SDS011;65100;46.884;17.410;2023-02-28T01:31:18;16.40;;;6.57;;
76290;SDS011;65100;46.884;17.410;2023-02-28T01:33:44;21.58;;;8.23;;
76290;SDS011;65100;46.884;17.410;2023-02-28T01:36:14;21.73;;;9.73;;
76290;SDS011;65100;46.884;17.410;2023-02-28T01:38:41;22.23;;;9.85;;
76290;SDS011;65100;46.884;17.410;2023-02-28T01:41:07;26.00;;;9.93;;
76290;SDS011;65100;46.884;17.410;2023-02-28T01:46:07;22.77;;;10.00;;
76290;SDS011;65100;46.884;17.410;2023-02-28T01:48:33;22.63;;;9.83;;
76290;SDS011;65100;46.884;17.410;2023-02-28T01:51:05;24.80;;;10.43;;
76290;SDS011;65100;46.884;17.410;2023-02-28T01:53:42;24.10;;;10.63;;
76290;SDS011;65100;46.884;17.410;2023-02-28T01:56:11;22.38;;;9.40;;
76290;SDS011;65100;46.884;17.410;2023-02-28T01:58:45;27.03;;;11.13;;
76290;SDS011;65100;46.884;17.410;2023-02-28T02:01:18;24.48;;;9.82;;
76290;SDS011;65100;46.884;17.410;2023-02-28T02:03:51;25.95;;;10.05;;
76290;SDS011;65100;46.884;17.410;2023-02-28T02:06:26;27.92;;;10.95;;
76290;SDS011;65100;46.884;17.410;2023-02-28T02:08:55;23.38;;;9.13;;
76290;SDS011;65100;46.884;17.410;2023-02-28T02:11:21;24.33;;;10.97;;
76290;SDS011;65100;46.884;17.410;2023-02-28T02:13:56;26.48;;;10.55;;
76290;SDS011;65100;46.884;17.410;2023-02-28T02:36:48;24.45;;;10.75;;
76290;SDS011;65100;46.884;17.410;2023-02-28T02:39:31;24.55;;;10.98;;
76290;SDS011;65100;46.884;17.410;2023-02-28T02:42:09;24.20;;;10.48;;
76290;SDS011;65100;46.884;17.410;2023-02-28T02:44:41;23.23;;;9.88;;
76290;SDS011;65100;46.884;17.410;2023-02-28T02:47:12;25.63;;;10.70;;
76290;SDS011;65100;46.884;17.410;2023-02-28T02:49:42;27.38;;;11.98;;
76290;SDS011;65100;46.884;17.410;2023-02-28T02:52:13;21.85;;;10.65;;
76290;SDS011;65100;46.884;17.410;2023-02-28T02:54:41;27.15;;;10.18;;
76290;SDS011;65100;46.884;17.410;2023-02-28T02:57:11;22.50;;;9.32;;
76290;SDS011;65100;46.884;17.410;2023-02-28T02:59:43;21.97;;;9.67;;
76290;SDS011;65100;46.884;17.410;2023-02-28T03:02:10;23.38;;;10.88;;
76290;SDS011;65100;46.884;17.410;2023-02-28T03:04:43;21.63;;;8.98;;
76290;SDS011;65100;46.884;17.410;2023-02-28T03:07:12;20.10;;;9.10;;
76290;SDS011;65100;46.884;17.410;2023-02-28T03:09:38;19.93;;;9.03;;
76290;SDS011;65100;46.884;17.410;2023-02-28T03:12:03;19.80;;;8.60;;
76290;SDS011;65100;46.884;17.410;2023-02-28T03:14:43;19.48;;;8.75;;
76290;SDS011;65100;46.884;17.410;2023-02-28T03:25:59;18.63;;;8.50;;
76290;SDS011;65100;46.884;17.410;2023-02-28T03:28:36;19.42;;;8.80;;
76290;SDS011;65100;46.884;17.410;2023-02-28T03:33:46;18.52;;;8.05;;
76290;SDS011;65100;46.884;17.410;2023-02-28T03:36:21;19.13;;;8.38;;
76290;SDS011;65100;46.884;17.410;2023-02-28T03:38:52;19.43;;;8.00;;
76290;SDS011;65100;46.884;17.410;2023-02-28T03:43:49;18.37;;;8.27;;
76290;SDS011;65100;46.884;17.410;2023-02-28T03:46:19;17.52;;;7.97;;
76290;SDS011;65100;46.884;17.410;2023-02-28T03:48:55;18.73;;;8.20;;
76290;SDS011;65100;46.884;17.410;2023-02-28T03:51:36;20.30;;;8.57;;
76290;SDS011;65100;46.884;17.410;2023-02-28T03:54:08;19.80;;;7.75;;
76290;SDS011;65100;46.884;17.410;2023-02-28T03:56:38;13.33;;;5.07;;
76290;SDS011;65100;46.884;17.410;2023-02-28T03:59:18;19.83;;;8.18;;
76290;SDS011;65100;46.884;17.410;2023-02-28T04:01:49;19.65;;;8.30;;
76290;SDS011;65100;46.884;17.410;2023-02-28T04:04:17;22.08;;;8.90;;
76290;SDS011;65100;46.884;17.410;2023-02-28T04:06:43;19.70;;;8.95;;
76290;SDS011;65100;46.884;17.410;2023-02-28T04:09:10;17.63;;;7.53;;
76290;SDS011;65100;46.884;17.410;2023-02-28T04:11:39;18.60;;;8.20;;
76290;SDS011;65100;46.884;17.410;2023-02-28T04:14:07;20.38;;;8.73;;
76290;SDS011;65100;46.884;17.410;2023-02-28T04:16:35;19.88;;;8.95;;
76290;SDS011;65100;46.884;17.410;2023-02-28T04:19:02;20.02;;;8.55;;
76290;SDS011;65100;46.884;17.410;2023-02-28T04:21:40;15.30;;;6.20;;
76290;SDS011;65100;46.884;17.410;2023-02-28T04:24:08;18.20;;;8.45;;
76290;SDS011;65100;46.884;17.410;2023-02-28T04:26:39;15.43;;;5.75;;
76290;SDS011;65100;46.884;17.410;2023-02-28T04:29:05;19.33;;;8.25;;
76290;SDS011;65100;46.884;17.410;2023-02-28T04:31:32;20.77;;;8.63;;
76290;SDS011;65100;46.884;17.410;2023-02-28T04:33:58;20.33;;;9.30;;
76290;SDS011;65100;46.884;17.410;2023-02-28T04:36:24;19.02;;;7.18;;
76290;SDS011;65100;46.884;17.410;2023-02-28T04:38:50;17.55;;;6.32;;
76290;SDS011;65100;46.884;17.410;2023-02-28T04:41:15;17.93;;;7.20;;
76290;SDS011;65100;46.884;17.410;2023-02-28T04:43:41;22.05;;;7.82;;
76290;SDS011;65100;46.884;17.410;2023-02-28T04:46:07;20.10;;;8.00;;
76290;SDS011;65100;46.884;17.410;2023-02-28T04:48:34;19.43;;;7.70;;
76290;SDS011;65100;46.884;17.410;2023-02-28T04:51:05;18.02;;;7.20;;
76290;SDS011;65100;46.884;17.410;2023-02-28T04:53:32;15.88;;;6.85;;
76290;SDS011;65100;46.884;17.410;2023-02-28T04:55:58;20.10;;;8.63;;
76290;SDS011;65100;46.884;17.410;2023-02-28T04:58:24;17.87;;;7.80;;
76290;SDS011;65100;46.884;17.410;2023-02-28T05:00:50;20.73;;;8.18;;
76290;SDS011;65100;46.884;17.410;2023-02-28T05:03:17;16.83;;;7.03;;
76290;SDS011;65100;46.884;17.410;2023-02-28T05:05:42;18.60;;;7.97;;
76290;SDS011;65100;46.884;17.410;2023-02-28T05:08:08;16.63;;;7.77;;
76290;SDS011;65100;46.884;17.410;2023-02-28T05:10:34;19.83;;;8.52;;
76290;SDS011;65100;46.884;17.410;2023-02-28T05:13:00;20.08;;;8.43;;
76290;SDS011;65100;46.884;17.410;2023-02-28T05:15:26;18.03;;;7.53;;
76290;SDS011;65100;46.884;17.410;2023-02-28T05:17:51;20.53;;;8.03;;
76290;SDS011;65100;46.884;17.410;2023-02-28T05:20:17;19.77;;;8.35;;
76290;SDS011;65100;46.884;17.410;2023-02-28T05:22:43;16.10;;;7.23;;
76290;SDS011;65100;46.884;17.410;2023-02-28T05:25:12;17.35;;;7.60;;
76290;SDS011;65100;46.884;17.410;2023-02-28T05:27:41;20.25;;;8.48;;
76290;SDS011;65100;46.884;17.410;2023-02-28T05:30:07;18.40;;;8.03;;
76290;SDS011;65100;46.884;17.410;2023-02-28T05:32:35;19.92;;;8.25;;
76290;SDS011;65100;46.884;17.410;2023-02-28T05:35:07;18.42;;;7.93;;
76290;SDS011;65100;46.884;17.410;2023-02-28T05:37:34;22.40;;;8.13;;
76290;SDS011;65100;46.884;17.410;2023-02-28T05:39:59;21.38;;;9.10;;
76290;SDS011;65100;46.884;17.410;2023-02-28T05:42:25;24.73;;;9.67;;
76290;SDS011;65100;46.884;17.410;2023-02-28T05:44:50;25.07;;;9.80;;
76290;SDS011;65100;46.884;17.410;2023-02-28T05:47:16;24.95;;;11.35;;
76290;SDS011;65100;46.884;17.410;2023-02-28T05:49:42;29.88;;;14.00;;
76290;SDS011;65100;46.884;17.410;2023-02-28T05:52:07;25.87;;;12.77;;
76290;SDS011;65100;46.884;17.410;2023-02-28T05:54:33;25.57;;;11.73;;
76290;SDS011;65100;46.884;17.410;2023-02-28T05:56:59;26.48;;;11.57;;
76290;SDS011;65100;46.884;17.410;2023-02-28T05:59:24;24.97;;;10.57;;
76290;SDS011;65100;46.884;17.410;2023-02-28T06:01:49;23.30;;;10.43;;
76290;SDS011;65100;46.884;17.410;2023-02-28T06:04:18;19.40;;;8.40;;
76290;SDS011;65100;46.884;17.410;2023-02-28T06:06:44;18.67;;;8.45;;
76290;SDS011;65100;46.884;17.410;2023-02-28T06:09:13;20.00;;;9.20;;
76290;SDS011;65100;46.884;17.410;2023-02-28T06:11:40;22.00;;;9.63;;
76290;SDS011;65100;46.884;17.410;2023-02-28T06:14:06;19.75;;;9.20;;
76290;SDS011;65100;46.884;17.410;2023-02-28T06:16:32;18.98;;;8.13;;
76290;SDS011;65100;46.884;17.410;2023-02-28T06:18:59;19.38;;;8.57;;
76290;SDS011;65100;46.884;17.410;2023-02-28T06:21:26;20.57;;;9.90;;
76290;SDS011;65100;46.884;17.410;2023-02-28T06:23:52;19.23;;;9.02;;
76290;SDS011;65100;46.884;17.410;2023-02-28T06:26:18;17.67;;;7.88;;
76290;SDS011;65100;46.884;17.410;2023-02-28T06:28:44;18.87;;;8.53;;
76290;SDS011;65100;46.884;17.410;2023-02-28T06:31:11;18.05;;;8.20;;
76290;SDS011;65100;46.884;17.410;2023-02-28T06:33:38;19.65;;;8.90;;
76290;SDS011;65100;46.884;17.410;2023-02-28T06:36:05;17.37;;;7.90;;
76290;SDS011;65100;46.884;17.410;2023-02-28T06:38:31;20.77;;;9.48;;
76290;SDS011;65100;46.884;17.410;2023-02-28T06:40:58;23.45;;;9.18;;
76290;SDS011;65100;46.884;17.410;2023-02-28T06:43:25;26.45;;;11.55;;
76290;SDS011;65100;46.884;17.410;2023-02-28T06:45:56;21.70;;;9.50;;
76290;SDS011;65100;46.884;17.410;2023-02-28T06:48:23;23.67;;;9.70;;
76290;SDS011;65100;46.884;17.410;2023-02-28T06:50:50;22.77;;;9.93;;
76290;SDS011;65100;46.884;17.410;2023-02-28T06:53:16;23.20;;;10.67;;
76290;SDS011;65100;46.884;17.410;2023-02-28T06:55:41;22.63;;;9.90;;
76290;SDS011;65100;46.884;17.410;2023-02-28T06:58:07;17.47;;;8.07;;
76290;SDS011;65100;46.884;17.410;2023-02-28T07:00:45;19.77;;;8.32;;
76290;SDS011;65100;46.884;17.410;2023-02-28T07:03:11;29.57;;;12.53;;
76290;SDS011;65100;46.884;17.410;2023-02-28T07:05:38;24.80;;;11.52;;
76290;SDS011;65100;46.884;17.410;2023-02-28T07:08:04;25.67;;;12.57;;
76290;SDS011;65100;46.884;17.410;2023-02-28T07:10:31;27.42;;;12.45;;
76290;SDS011;65100;46.884;17.410;2023-02-28T07:12:57;24.13;;;10.60;;
76290;SDS011;65100;46.884;17.410;2023-02-28T07:15:24;21.33;;;8.90;;
76290;SDS011;65100;46.884;17.410;2023-02-28T07:17:49;20.15;;;9.40;;
76290;SDS011;65100;46.884;17.410;2023-02-28T07:20:15;22.87;;;8.93;;
76290;SDS011;65100;46.884;17.410;2023-02-28T07:22:41;21.20;;;9.93;;
76290;SDS011;65100;46.884;17.410;2023-02-28T07:25:06;22.13;;;10.60;;
76290;SDS011;65100;46.884;17.410;2023-02-28T07:27:33;20.45;;;9.07;;
76290;SDS011;65100;46.884;17.410;2023-02-28T07:29:59;24.08;;;10.05;;
76290;SDS011;65100;46.884;17.410;2023-02-28T07:32:26;20.48;;;7.90;;
76290;SDS011;65100;46.884;17.410;2023-02-28T07:34:53;20.13;;;9.27;;
76290;SDS011;65100;46.884;17.410;2023-02-28T07:37:19;19.45;;;8.50;;
76290;SDS011;65100;46.884;17.410;2023-02-28T07:39:44;20.52;;;9.75;;
76290;SDS011;65100;46.884;17.410;2023-02-28T07:42:10;22.10;;;9.70;;
76290;SDS011;65100;46.884;17.410;2023-02-28T07:44:37;22.73;;;8.95;;
76290;SDS011;65100;46.884;17.410;2023-02-28T07:47:09;20.02;;;8.48;;
76290;SDS011;65100;46.884;17.410;2023-02-28T07:49:35;19.20;;;8.18;;
76290;SDS011;65100;46.884;17.410;2023-02-28T07:52:13;19.03;;;9.03;;
76290;SDS011;65100;46.884;17.410;2023-02-28T07:54:38;22.33;;;9.35;;
76290;SDS011;65100;46.884;17.410;2023-02-28T07:57:04;20.37;;;8.90;;
76290;SDS011;65100;46.884;17.410;2023-02-28T07:59:29;19.67;;;8.18;;
76290;SDS011;65100;46.884;17.410;2023-02-28T08:01:56;18.77;;;7.20;;
76290;SDS011;65100;46.884;17.410;2023-02-28T08:04:22;25.08;;;7.60;;
76290;SDS011;65100;46.884;17.410;2023-02-28T08:06:48;16.40;;;7.43;;
76290;SDS011;65100;46.884;17.410;2023-02-28T08:09:13;17.70;;;6.63;;
76290;SDS011;65100;46.884;17.410;2023-02-28T08:11:39;17.15;;;7.40;;
76290;SDS011;65100;46.884;17.410;2023-02-28T08:14:05;15.70;;;7.00;;
76290;SDS011;65100;46.884;17.410;2023-02-28T08:16:30;23.23;;;8.90;;
76290;SDS011;65100;46.884;17.410;2023-02-28T08:18:56;18.07;;;7.77;;
76290;SDS011;65100;46.884;17.410;2023-02-28T08:21:21;17.88;;;7.95;;
76290;SDS011;65100;46.884;17.410;2023-02-28T08:23:47;108.50;;;23.07;;
76290;SDS011;65100;46.884;17.410;2023-02-28T08:26:14;22.02;;;8.50;;
76290;SDS011;65100;46.884;17.410;2023-02-28T08:28:40;18.38;;;7.70;;
76290;SDS011;65100;46.884;17.410;2023-02-28T08:31:09;18.33;;;7.37;;
76290;SDS011;65100;46.884;17.410;2023-02-28T08:33:35;18.65;;;8.55;;
76290;SDS011;65100;46.884;17.410;2023-02-28T08:36:01;17.52;;;7.70;;
76290;SDS011;65100;46.884;17.410;2023-02-28T08:38:27;18.50;;;8.47;;
76290;SDS011;65100;46.884;17.410;2023-02-28T08:41:03;17.67;;;8.60;;
76290;SDS011;65100;46.884;17.410;2023-02-28T08:43:32;17.35;;;7.95;;
76290;SDS011;65100;46.884;17.410;2023-02-28T08:45:59;18.85;;;8.23;;
76290;SDS011;65100;46.884;17.410;2023-02-28T08:48:25;19.15;;;8.63;;
76290;SDS011;65100;46.884;17.410;2023-02-28T08:51:11;24.07;;;10.13;;
76290;SDS011;65100;46.884;17.410;2023-02-28T08:53:39;18.45;;;7.85;;
76290;SDS011;65100;46.884;17.410;2023-02-28T08:56:06;17.52;;;7.85;;
76290;SDS011;65100;46.884;17.410;2023-02-28T08:58:34;16.20;;;8.02;;
76290;SDS011;65100;46.884;17.410;2023-02-28T09:01:00;19.90;;;8.15;;
76290;SDS011;65100;46.884;17.410;2023-02-28T09:03:32;26.00;;;11.07;;
76290;SDS011;65100;46.884;17.410;2023-02-28T09:05:58;23.92;;;9.40;;
76290;SDS011;65100;46.884;17.410;2023-02-28T09:08:25;20.42;;;9.30;;
76290;SDS011;65100;46.884;17.410;2023-02-28T09:10:52;21.03;;;9.00;;
76290;SDS011;65100;46.884;17.410;2023-02-28T09:13:19;20.23;;;9.55;;
76290;SDS011;65100;46.884;17.410;2023-02-28T09:15:45;15.85;;;7.28;;
76290;SDS011;65100;46.884;17.410;2023-02-28T09:18:11;15.73;;;7.67;;
76290;SDS011;65100;46.884;17.410;2023-02-28T09:20:37;20.58;;;9.90;;
76290;SDS011;65100;46.884;17.410;2023-02-28T09:23:04;15.80;;;7.50;;
76290;SDS011;65100;46.884;17.410;2023-02-28T09:25:30;15.57;;;7.63;;
76290;SDS011;65100;46.884;17.410;2023-02-28T09:27:56;17.50;;;8.03;;
76290;SDS011;65100;46.884;17.410;2023-02-28T09:30:22;18.63;;;7.93;;
76290;SDS011;65100;46.884;17.410;2023-02-28T09:32:47;19.00;;;8.20;;
76290;SDS011;65100;46.884;17.410;2023-02-28T09:35:18;18.88;;;9.63;;
76290;SDS011;65100;46.884;17.410;2023-02-28T09:37:46;24.13;;;12.75;;
76290;SDS011;65100;46.884;17.410;2023-02-28T09:40:12;22.10;;;11.10;;
76290;SDS011;65100;46.884;17.410;2023-02-28T09:42:39;21.40;;;11.15;;
76290;SDS011;65100;46.884;17.410;2023-02-28T09:45:06;20.55;;;10.05;;
76290;SDS011;65100;46.884;17.410;2023-02-28T09:47:48;19.55;;;9.20;;
76290;SDS011;65100;46.884;17.410;2023-02-28T09:50:22;17.77;;;8.13;;
76290;SDS011;65100;46.884;17.410;2023-02-28T09:53:19;25.67;;;13.25;;
76290;SDS011;65100;46.884;17.410;2023-02-28T09:55:53;27.13;;;15.35;;
76290;SDS011;65100;46.884;17.410;2023-02-28T09:58:33;19.83;;;10.05;;
76290;SDS011;65100;46.884;17.410;2023-02-28T10:01:17;19.35;;;9.88;;
76290;SDS011;65100;46.884;17.410;2023-02-28T10:03:46;19.00;;;9.50;;
76290;SDS011;65100;46.884;17.410;2023-02-28T10:06:22;19.30;;;9.57;;
76290;SDS011;65100;46.884;17.410;2023-02-28T10:09:00;16.45;;;6.97;;
76290;SDS011;65100;46.884;17.410;2023-02-28T10:11:28;16.00;;;7.40;;
76290;SDS011;65100;46.884;17.410;2023-02-28T10:17:30;15.43;;;7.10;;
76290;SDS011;65100;46.884;17.410;2023-02-28T10:24:52;16.42;;;7.85;;
76290;SDS011;65100;46.884;17.410;2023-02-28T10:29:49;17.60;;;8.47;;
76290;SDS011;65100;46.884;17.410;2023-02-28T10:32:20;17.25;;;7.95;;
76290;SDS011;65100;46.884;17.410;2023-02-28T10:34:57;16.92;;;7.90;;
76290;SDS011;65100;46.884;17.410;2023-02-28T10:37:24;17.50;;;8.85;;
76290;SDS011;65100;46.884;17.410;2023-02-28T10:39:49;18.40;;;8.70;;
76290;SDS011;65100;46.884;17.410;2023-02-28T10:42:26;15.63;;;7.45;;
76290;SDS011;65100;46.884;17.410;2023-02-28T10:47:49;16.83;;;7.80;;
76290;SDS011;65100;46.884;17.410;2023-02-28T10:53:14;16.42;;;7.57;;
76290;SDS011;65100;46.884;17.410;2023-02-28T10:55:41;18.35;;;8.00;;
76290;SDS011;65100;46.884;17.410;2023-02-28T10:58:22;16.33;;;7.70;;
76290;SDS011;65100;46.884;17.410;2023-02-28T11:00:53;21.20;;;8.50;;
76290;SDS011;65100;46.884;17.410;2023-02-28T11:03:37;15.90;;;7.53;;
76290;SDS011;65100;46.884;17.410;2023-02-28T11:06:07;16.88;;;8.20;;
76290;SDS011;65100;46.884;17.410;2023-02-28T11:09:14;16.00;;;8.27;;
76290;SDS011;65100;46.884;17.410;2023-02-28T11:11:43;28.85;;;11.50;;
76290;SDS011;65100;46.884;17.410;2023-02-28T11:14:25;16.48;;;7.68;;
76290;SDS011;65100;46.884;17.410;2023-02-28T11:16:56;14.82;;;6.80;;
76290;SDS011;65100;46.884;17.410;2023-02-28T11:19:30;17.05;;;8.00;;
76290;SDS011;65100;46.884;17.410;2023-02-28T11:22:03;18.03;;;8.37;;
76290;SDS011;65100;46.884;17.410;2023-02-28T11:24:33;24.35;;;11.75;;
76290;SDS011;65100;46.884;17.410;2023-02-28T11:27:01;16.55;;;7.63;;
76290;SDS011;65100;46.884;17.410;2023-02-28T11:29:29;17.23;;;9.02;;
76290;SDS011;65100;46.884;17.410;2023-02-28T11:32:04;17.63;;;8.68;;
76290;SDS011;65100;46.884;17.410;2023-02-28T11:34:36;18.77;;;9.77;;
76290;SDS011;65100;46.884;17.410;2023-02-28T11:37:03;16.73;;;8.02;;
76290;SDS011;65100;46.884;17.410;2023-02-28T11:39:35;15.75;;;7.38;;
76290;SDS011;65100;46.884;17.410;2023-02-28T11:42:15;17.65;;;8.75;;
76290;SDS011;65100;46.884;17.410;2023-02-28T12:06:01;15.38;;;7.50;;
76290;SDS011;65100;46.884;17.410;2023-02-28T12:08:48;18.08;;;8.57;;
76290;SDS011;65100;46.884;17.410;2023-02-28T12:14:25;15.90;;;7.50;;
76290;SDS011;65100;46.884;17.410;2023-02-28T12:28:24;16.95;;;8.43;;
76290;SDS011;65100;46.884;17.410;2023-02-28T12:30:56;16.80;;;7.90;;
76290;SDS011;65100;46.884;17.410;2023-02-28T12:33:28;17.48;;;7.90;;
76290;SDS011;65100;46.884;17.410;2023-02-28T12:36:00;17.88;;;8.45;;
76290;SDS011;65100;46.884;17.410;2023-02-28T12:38:45;16.23;;;7.97;;
76290;SDS011;65100;46.884;17.410;2023-02-28T12:41:13;17.83;;;7.68;;
76290;SDS011;65100;46.884;17.410;2023-02-28T12:43:46;19.63;;;8.30;;
76290;SDS011;65100;46.884;17.410;2023-02-28T12:46:17;15.27;;;6.95;;
76290;SDS011;65100;46.884;17.410;2023-02-28T12:48:52;15.75;;;7.63;;
76290;SDS011;65100;46.884;17.410;2023-02-28T12:51:21;17.00;;;8.07;;
76290;SDS011;65100;46.884;17.410;2023-02-28T13:04:27;16.17;;;7.10;;
76290;SDS011;65100;46.884;17.410;2023-02-28T13:10:03;17.87;;;8.50;;
76290;SDS011;65100;46.884;17.410;2023-02-28T13:12:32;17.65;;;8.52;;
76290;SDS011;65100;46.884;17.410;2023-02-28T13:17:56;18.35;;;8.57;;
76290;SDS011;65100;46.884;17.410;2023-02-28T13:20:27;20.95;;;9.55;;
76290;SDS011;65100;46.884;17.410;2023-02-28T13:22:58;16.67;;;7.97;;
76290;SDS011;65100;46.884;17.410;2023-02-28T13:28:10;17.58;;;8.27;;
76290;SDS011;65100;46.884;17.410;2023-02-28T13:33:24;17.70;;;8.50;;
76290;SDS011;65100;46.884;17.410;2023-02-28T13:36:10;17.67;;;8.50;;
76290;SDS011;65100;46.884;17.410;2023-02-28T13:57:48;19.20;;;9.27;;
76290;SDS011;65100;46.884;17.410;2023-02-28T14:08:53;18.07;;;8.97;;
76290;SDS011;65100;46.884;17.410;2023-02-28T14:11:29;19.05;;;9.05;;
76290;SDS011;65100;46.884;17.410;2023-02-28T14:13:59;21.52;;;10.63;;
76290;SDS011;65100;46.884;17.410;2023-02-28T14:16:26;22.27;;;9.52;;
76290;SDS011;65100;46.884;17.410;2023-02-28T14:19:05;17.67;;;9.77;;
76290;SDS011;65100;46.884;17.410;2023-02-28T14:21:38;18.77;;;8.87;;
76290;SDS011;65100;46.884;17.410;2023-02-28T14:29:30;21.67;;;10.30;;
76290;SDS011;65100;46.884;17.410;2023-02-28T14:32:02;21.58;;;10.20;;
76290;SDS011;65100;46.884;17.410;2023-02-28T14:37:13;17.70;;;9.07;;
76290;SDS011;65100;46.884;17.410;2023-02-28T14:39:44;21.13;;;9.70;;
76290;SDS011;65100;46.884;17.410;2023-02-28T14:44:58;18.90;;;8.80;;
76290;SDS011;65100;46.884;17.410;2023-02-28T14:47:32;18.40;;;9.27;;
76290;SDS011;65100;46.884;17.410;2023-02-28T14:50:00;17.87;;;8.63;;
76290;SDS011;65100;46.884;17.410;2023-02-28T14:52:29;22.20;;;8.77;;
76290;SDS011;65100;46.884;17.410;2023-02-28T14:54:58;19.30;;;10.00;;
76290;SDS011;65100;46.884;17.410;2023-02-28T14:57:32;19.45;;;9.25;;
76290;SDS011;65100;46.884;17.410;2023-02-28T15:02:37;19.63;;;9.50;;
76290;SDS011;65100;46.884;17.410;2023-02-28T15:07:41;28.75;;;12.27;;
76290;SDS011;65100;46.884;17.410;2023-02-28T15:12:34;19.00;;;8.90;;
76290;SDS011;65100;46.884;17.410;2023-02-28T15:15:01;19.07;;;8.37;;
76290;SDS011;65100;46.884;17.410;2023-02-28T15:17:28;22.30;;;9.95;;
76290;SDS011;65100;46.884;17.410;2023-02-28T15:19:54;20.23;;;9.93;;
76290;SDS011;65100;46.884;17.410;2023-02-28T15:22:27;20.10;;;9.52;;
76290;SDS011;65100;46.884;17.410;2023-02-28T15:24:59;20.65;;;9.35;;
76290;SDS011;65100;46.884;17.410;2023-02-28T15:27:28;23.73;;;11.30;;
76290;SDS011;65100;46.884;17.410;2023-02-28T15:30:00;23.42;;;10.80;;
76290;SDS011;65100;46.884;17.410;2023-02-28T15:32:33;23.92;;;11.23;;
76290;SDS011;65100;46.884;17.410;2023-02-28T15:40:32;18.77;;;9.30;;
76290;SDS011;65100;46.884;17.410;2023-02-28T15:43:15;23.30;;;9.53;;
76290;SDS011;65100;46.884;17.410;2023-02-28T15:45:59;21.60;;;10.75;;
76290;SDS011;65100;46.884;17.410;2023-02-28T15:48:28;20.40;;;10.07;;
76290;SDS011;65100;46.884;17.410;2023-02-28T15:50:57;19.70;;;9.63;;
76290;SDS011;65100;46.884;17.410;2023-02-28T15:53:51;22.42;;;10.30;;
76290;SDS011;65100;46.884;17.410;2023-02-28T15:56:28;20.53;;;9.60;;
76290;SDS011;65100;46.884;17.410;2023-02-28T15:58:56;20.40;;;9.63;;
76290;SDS011;65100;46.884;17.410;2023-02-28T16:01:27;21.02;;;10.13;;
76290;SDS011;65100;46.884;17.410;2023-02-28T16:03:59;22.95;;;10.85;;
76290;SDS011;65100;46.884;17.410;2023-02-28T16:09:15;22.67;;;10.07;;
76290;SDS011;65100;46.884;17.410;2023-02-28T16:11:45;23.98;;;10.50;;
76290;SDS011;65100;46.884;17.410;2023-02-28T16:14:14;23.52;;;11.57;;
76290;SDS011;65100;46.884;17.410;2023-02-28T16:16:42;28.60;;;14.63;;
76290;SDS011;65100;46.884;17.410;2023-02-28T16:19:09;26.33;;;13.95;;
76290;SDS011;65100;46.884;17.410;2023-02-28T16:21:34;25.63;;;12.47;;
76290;SDS011;65100;46.884;17.410;2023-02-28T16:24:00;26.57;;;12.60;;
76290;SDS011;65100;46.884;17.410;2023-02-28T16:26:25;45.20;;;19.07;;
76290;SDS011;65100;46.884;17.410;2023-02-28T16:28:53;27.17;;;12.57;;
76290;SDS011;65100;46.884;17.410;2023-02-28T16:31:19;25.98;;;13.25;;
76290;SDS011;65100;46.884;17.410;2023-02-28T16:33:45;31.08;;;15.82;;
76290;SDS011;65100;46.884;17.410;2023-02-28T16:36:15;24.08;;;12.35;;
76290;SDS011;65100;46.884;17.410;2023-02-28T16:38:45;27.73;;;14.02;;
76290;SDS011;65100;46.884;17.410;2023-02-28T16:41:20;31.27;;;15.60;;
76290;SDS011;65100;46.884;17.410;2023-02-28T16:43:50;28.33;;;15.02;;
76290;SDS011;65100;46.884;17.410;2023-02-28T16:46:19;27.90;;;14.65;;
76290;SDS011;65100;46.884;17.410;2023-02-28T16:48:45;27.90;;;14.60;;
76290;SDS011;65100;46.884;17.410;2023-02-28T16:51:14;24.33;;;13.23;;
76290;SDS011;65100;46.884;17.410;2023-02-28T16:53:41;28.42;;;15.23;;
76290;SDS011;65100;46.884;17.410;2023-02-28T16:56:13;24.80;;;13.38;;
76290;SDS011;65100;46.884;17.410;2023-02-28T16:58:41;26.95;;;13.10;;
76290;SDS011;65100;46.884;17.410;2023-02-28T17:01:07;27.67;;;13.03;;
76290;SDS011;65100;46.884;17.410;2023-02-28T17:03:35;31.70;;;14.97;;
76290;SDS011;65100;46.884;17.410;2023-02-28T17:06:05;36.30;;;16.00;;
76290;SDS011;65100;46.884;17.410;2023-02-28T17:08:32;40.10;;;18.10;;
76290;SDS011;65100;46.884;17.410;2023-02-28T17:11:00;45.93;;;22.10;;
76290;SDS011;65100;46.884;17.410;2023-02-28T17:13:27;48.67;;;20.83;;
76290;SDS011;65100;46.884;17.410;2023-02-28T17:15:53;26.10;;;13.80;;
76290;SDS011;65100;46.884;17.410;2023-02-28T17:18:18;29.05;;;13.25;;